Time;durP1;ratioP1;P1;durP2;ratioP2;P2;SDS_P1;SDS_P2;PMS_P1;PMS_P2;Temp;Humidity;BMP_temperature;BMP_pressure;BME280_temperature;BME280_humidity;BME280_pressure;Samples;Min_cycle;Max_cycle;Signal;HPM_P1;HPM_P2
2023/01/29 00:01:07;;;;;;;22.75;11.90;;;4.30;99.90;;;;;;5002592;28;20063;-52
2023/01/29 00:03:34;;;;;;;20.85;12.05;;;4.20;99.90;;;;;;5007257;28;20393;-46
2023/01/29 00:06:03;;;;;;;18.70;11.98;;;4.20;99.90;;;;;;5009242;28;20026;-48
2023/01/29 00:08:29;;;;;;;21.02;12.07;;;4.20;99.90;;;;;;5020297;28;20050;-41
2023/01/29 00:11:06;;;;;;;19.75;11.90;;;4.20;99.90;;;;;;5024106;28;20053;-42
2023/01/29 00:13:33;;;;;;;23.98;12.68;;;4.20;99.90;;;;;;5024973;28;20060;-50
2023/01/29 00:15:59;;;;;;;21.88;13.05;;;4.10;99.90;;;;;;5023018;28;20025;-52
2023/01/29 00:18:26;;;;;;;19.20;11.75;;;4.10;99.90;;;;;;5025351;28;20488;-36
2023/01/29 00:20:51;;;;;;;23.63;13.25;;;4.20;99.90;;;;;;5024738;28;20025;-42
2023/01/29 00:23:17;;;;;;;20.17;11.73;;;4.20;99.90;;;;;;5025008;28;20361;-47
2023/01/29 00:25:44;;;;;;;20.25;12.60;;;4.10;99.90;;;;;;5027542;28;20030;-49
2023/01/29 00:28:10;;;;;;;21.83;12.90;;;4.20;99.90;;;;;;5019831;28;20033;-44
2023/01/29 00:30:36;;;;;;;21.10;13.68;;;4.20;99.90;;;;;;5021958;28;20092;-46
2023/01/29 00:33:03;;;;;;;21.92;13.00;;;4.20;99.90;;;;;;5020804;28;20060;-37
2023/01/29 00:35:29;;;;;;;20.75;13.30;;;4.20;99.90;;;;;;5023160;28;20099;-41
2023/01/29 00:37:55;;;;;;;21.13;12.48;;;4.20;99.90;;;;;;5019753;28;20124;-38
2023/01/29 00:40:21;;;;;;;22.55;12.52;;;4.20;99.90;;;;;;5025244;28;20017;-40
2023/01/29 00:45:32;;;;;;;25.23;13.98;;;4.20;99.90;;;;;;5027470;28;20036;-40
2023/01/29 00:47:57;;;;;;;22.67;13.75;;;4.20;99.90;;;;;;5018402;28;20025;-41
2023/01/29 00:50:23;;;;;;;21.27;13.45;;;4.20;99.90;;;;;;5022527;28;20021;-41
2023/01/29 00:52:50;;;;;;;29.67;14.80;;;4.20;99.90;;;;;;5007728;28;20026;-38
2023/01/29 00:55:16;;;;;;;27.15;14.90;;;4.20;99.90;;;;;;5020868;28;20041;-49
2023/01/29 00:57:42;;;;;;;24.45;15.05;;;4.20;99.90;;;;;;5018422;28;20404;-39
2023/01/29 01:00:11;;;;;;;27.92;14.70;;;4.20;99.90;;;;;;5018061;28;20108;-47
2023/01/29 01:05:21;;;;;;;30.50;15.02;;;4.40;99.90;;;;;;5019168;28;20028;-41
2023/01/29 01:07:50;;;;;;;28.30;15.13;;;4.30;99.90;;;;;;5017697;28;20026;-40
2023/01/29 01:10:30;;;;;;;33.83;15.50;;;4.40;99.90;;;;;;5019588;28;20488;-53
2023/01/29 01:13:00;;;;;;;;;;;4.40;99.90;;;;;;5021048;28;20030;-42
2023/01/29 01:15:37;;;;;;;23.05;14.20;;;4.40;99.90;;;;;;5025790;28;19913;-37
2023/01/29 01:18:04;;;;;;;23.27;13.23;;;4.40;99.90;;;;;;5023997;28;20038;-37
2023/01/29 01:20:32;;;;;;;28.60;15.20;;;4.40;99.90;;;;;;5009514;28;20022;-41
2023/01/29 01:22:58;;;;;;;27.17;14.95;;;4.40;99.90;;;;;;5010496;28;20401;-42
2023/01/29 01:25:25;;;;;;;29.38;14.98;;;4.50;99.90;;;;;;5010394;28;20038;-42
2023/01/29 01:27:55;;;;;;;28.17;15.38;;;4.50;99.90;;;;;;5010556;28;20034;-51
2023/01/29 01:30:22;;;;;;;23.42;13.73;;;4.60;99.90;;;;;;5010585;28;20022;-40
2023/01/29 01:32:48;;;;;;;27.15;14.30;;;4.50;99.90;;;;;;5010458;28;20076;-37
2023/01/29 01:35:13;;;;;;;28.55;13.98;;;4.50;99.90;;;;;;5010638;28;20030;-45
2023/01/29 01:37:40;;;;;;;20.02;12.60;;;4.60;99.90;;;;;;5010849;28;20488;-45
2023/01/29 01:40:11;;;;;;;22.10;12.43;;;4.60;99.90;;;;;;4999758;28;20027;-43
2023/01/29 01:42:38;;;;;;;23.30;13.02;;;4.70;99.90;;;;;;4990825;28;20477;-38
2023/01/29 01:45:09;;;;;;;20.10;11.82;;;4.60;99.90;;;;;;4999229;28;20109;-49
2023/01/29 01:47:41;;;;;;;20.95;11.70;;;4.70;99.90;;;;;;4986198;28;20046;-43
2023/01/29 01:50:23;;;;;;;19.38;12.27;;;4.70;99.90;;;;;;4990992;28;20034;-39
2023/01/29 01:52:53;;;;;;;22.85;12.60;;;4.70;99.90;;;;;;4990977;28;20498;-51
2023/01/29 01:55:23;;;;;;;24.05;12.10;;;4.60;99.90;;;;;;5002074;28;20486;-43
2023/01/29 01:57:54;;;;;;;23.55;12.82;;;4.70;99.90;;;;;;5000222;28;20042;-38
2023/01/29 02:00:22;;;;;;;21.90;12.13;;;4.70;99.90;;;;;;5013656;28;20046;-50
2023/01/29 02:11:25;;;;;;;20.88;12.52;;;4.70;99.90;;;;;;5014320;28;20025;-49
2023/01/29 02:13:52;;;;;;;24.10;12.75;;;4.70;99.90;;;;;;4996253;28;20397;-48
2023/01/29 02:16:19;;;;;;;24.25;12.93;;;4.70;99.90;;;;;;5013628;28;20026;-46
2023/01/29 02:18:46;;;;;;;21.85;12.60;;;4.70;99.90;;;;;;5013518;28;20038;-48
2023/01/29 02:21:33;;;;;;;20.45;11.85;;;4.70;99.90;;;;;;5013463;28;20064;-45
2023/01/29 02:24:29;;;;;;;18.40;11.02;;;4.60;99.90;;;;;;5013234;28;20531;-42
2023/01/29 02:27:04;;;;;;;21.83;12.05;;;4.60;99.90;;;;;;5002529;28;20067;-52
2023/01/29 02:30:10;;;;;;;20.73;12.02;;;4.60;99.90;;;;;;4996709;28;20026;-50
2023/01/29 02:32:53;;;;;;;21.23;12.95;;;4.50;99.90;;;;;;5013490;28;20065;-49
2023/01/29 02:35:26;;;;;;;20.67;12.57;;;4.50;99.90;;;;;;5001558;28;20049;-43
2023/01/29 02:37:58;;;;;;;23.40;12.40;;;4.50;99.90;;;;;;5013086;28;20125;-50
2023/01/29 02:40:40;;;;;;;19.27;11.95;;;4.50;99.90;;;;;;5013438;28;20014;-48
2023/01/29 02:43:26;;;;;;;19.52;12.20;;;4.50;99.90;;;;;;5013180;28;20056;-53
2023/01/29 02:46:20;;;;;;;20.45;11.82;;;4.50;99.90;;;;;;5013576;28;20461;-43
2023/01/29 02:49:12;;;;;;;19.25;12.25;;;4.50;99.90;;;;;;5000199;28;20535;-48
2023/01/29 02:51:49;;;;;;;25.20;12.95;;;4.50;99.90;;;;;;5013038;28;20018;-49
2023/01/29 02:54:28;;;;;;;21.23;12.20;;;4.50;99.90;;;;;;5012670;28;20117;-52
2023/01/29 02:56:57;;;;;;;22.58;12.27;;;4.50;99.90;;;;;;5012782;28;20497;-57
2023/01/29 02:59:33;;;;;;;;;;;4.50;99.90;;;;;;4999981;28;20117;-50
2023/01/29 03:02:15;;;;;;;22.45;11.75;;;4.50;99.90;;;;;;5012743;28;19924;-40
2023/01/29 03:04:46;;;;;;;26.85;14.95;;;4.50;99.90;;;;;;5012708;28;20087;-42
2023/01/29 03:07:41;;;;;;;24.33;13.70;;;4.60;99.90;;;;;;5012625;28;20053;-37
2023/01/29 03:10:32;;;;;;;25.52;13.57;;;4.60;99.90;;;;;;5012356;28;20025;-48
2023/01/29 03:13:04;;;;;;;26.70;13.55;;;4.60;99.90;;;;;;5001908;28;20044;-37
2023/01/29 03:15:38;;;;;;;21.20;12.95;;;4.60;99.90;;;;;;5012640;28;20088;-42
2023/01/29 03:18:26;;;;;;;20.55;12.45;;;4.60;99.90;;;;;;5010712;28;20034;-43
2023/01/29 03:20:57;;;;;;;21.90;12.18;;;4.60;99.90;;;;;;5015574;28;20036;-53
2023/01/29 03:32:06;;;;;;;25.13;13.15;;;4.60;99.90;;;;;;5012283;28;20048;-38
2023/01/29 03:34:50;;;;;;;22.65;12.43;;;4.50;99.90;;;;;;5012096;28;20117;-43
2023/01/29 03:37:20;;;;;;;20.60;11.95;;;4.50;99.90;;;;;;5011801;28;20042;-36
2023/01/29 03:39:45;;;;;;;19.88;11.57;;;4.40;99.90;;;;;;5012266;28;20022;-40
2023/01/29 03:42:11;;;;;;;20.38;11.52;;;4.40;99.90;;;;;;5011949;28;20030;-37
2023/01/29 03:44:56;;;;;;;21.70;12.10;;;4.40;99.90;;;;;;5012352;28;20088;-51
2023/01/29 03:47:30;;;;;;;20.92;11.95;;;4.50;99.90;;;;;;5011872;28;20025;-37
2023/01/29 03:50:01;;;;;;;20.80;12.27;;;4.50;99.90;;;;;;5012056;28;20037;-46
2023/01/29 03:52:59;;;;;;;21.52;12.85;;;4.60;99.90;;;;;;5011623;28;20045;-41
2023/01/29 03:55:42;;;;;;;20.55;12.02;;;4.50;99.90;;;;;;5002644;28;20022;-39
2023/01/29 03:58:29;;;;;;;19.38;12.10;;;4.50;99.90;;;;;;5011647;28;20554;-51
2023/01/29 04:01:00;;;;;;;21.80;12.45;;;4.50;99.90;;;;;;5010831;28;20099;-44
2023/01/29 04:03:34;;;;;;;19.42;12.48;;;4.50;99.90;;;;;;4998213;28;20032;-48
2023/01/29 04:06:14;;;;;;;22.38;12.70;;;4.40;99.90;;;;;;5011804;28;20022;-49
2023/01/29 04:08:49;;;;;;;20.27;12.80;;;4.50;99.90;;;;;;4999202;28;20030;-43
2023/01/29 04:11:19;;;;;;;22.65;13.23;;;4.50;99.90;;;;;;5011404;28;20033;-46
2023/01/29 04:13:45;;;;;;;21.42;12.02;;;4.50;99.90;;;;;;4993830;28;20050;-44
2023/01/29 04:16:24;;;;;;;22.30;13.38;;;4.50;99.90;;;;;;5011486;28;20058;-39
2023/01/29 04:18:49;;;;;;;25.02;14.45;;;4.50;99.90;;;;;;5011519;28;20040;-50
2023/01/29 04:21:17;;;;;;;22.27;14.00;;;4.50;99.90;;;;;;5010579;28;20030;-45
2023/01/29 04:23:43;;;;;;;23.92;13.40;;;4.50;99.90;;;;;;5010794;28;20049;-49
2023/01/29 04:26:26;;;;;;;23.50;13.25;;;4.50;99.90;;;;;;5011208;28;20409;-47
2023/01/29 04:29:13;;;;;;;22.73;13.50;;;4.50;99.90;;;;;;5011371;28;20025;-40
2023/01/29 04:31:52;;;;;;;25.50;13.85;;;4.50;99.90;;;;;;5011104;28;20104;-47
2023/01/29 04:34:28;;;;;;;25.20;14.18;;;4.40;99.90;;;;;;5011129;28;20021;-41
2023/01/29 04:37:22;;;;;;;27.60;14.88;;;4.50;99.90;;;;;;5011047;28;20053;-56
2023/01/29 04:40:16;;;;;;;25.98;14.15;;;4.40;99.90;;;;;;5011158;28;20108;-39
2023/01/29 04:42:53;;;;;;;24.58;13.80;;;4.40;99.90;;;;;;4994205;28;20137;-45
2023/01/29 04:45:38;;;;;;;23.20;13.70;;;4.40;99.90;;;;;;5011012;28;20101;-45
2023/01/29 04:48:06;;;;;;;30.00;14.68;;;4.40;99.90;;;;;;5011164;28;20030;-45
2023/01/29 04:50:39;;;;;;;23.73;14.68;;;4.30;99.90;;;;;;5010950;28;20100;-37
2023/01/29 04:53:46;;;;;;;28.63;15.63;;;4.30;99.90;;;;;;5010582;28;20018;-38
2023/01/29 04:56:39;;;;;;;25.35;14.27;;;4.30;99.90;;;;;;5009988;28;20397;-40
2023/01/29 04:59:10;;;;;;;28.75;15.57;;;4.20;99.90;;;;;;5010377;28;20639;-46
2023/01/29 05:01:37;;;;;;;29.40;16.98;;;4.20;99.90;;;;;;5010744;28;20086;-48
2023/01/29 05:04:11;;;;;;;29.35;16.63;;;4.20;99.90;;;;;;5010814;28;20030;-52
2023/01/29 05:06:38;;;;;;;31.77;17.10;;;4.10;99.90;;;;;;5010900;28;20036;-44
2023/01/29 05:09:04;;;;;;;31.60;17.27;;;4.20;99.90;;;;;;5010922;28;20477;-48
2023/01/29 05:11:31;;;;;;;32.33;16.98;;;4.20;99.90;;;;;;5010793;28;20182;-42
2023/01/29 05:13:58;;;;;;;36.47;16.65;;;4.20;99.90;;;;;;4993237;28;20362;-48
2023/01/29 05:16:40;;;;;;;31.67;17.70;;;4.30;99.90;;;;;;5010632;28;20022;-45
2023/01/29 05:19:15;;;;;;;32.35;17.17;;;4.30;99.90;;;;;;5010785;28;20038;-40
2023/01/29 05:21:44;;;;;;;30.45;16.17;;;4.30;99.90;;;;;;5010603;28;20025;-54
2023/01/29 05:24:11;;;;;;;29.38;16.90;;;4.30;99.90;;;;;;5010581;28;20022;-40
2023/01/29 05:29:21;;;;;;;28.42;16.30;;;4.30;99.90;;;;;;5010860;28;20041;-48
2023/01/29 05:31:47;;;;;;;28.45;16.15;;;4.30;99.90;;;;;;5011315;28;20029;-48
2023/01/29 05:34:12;;;;;;;28.38;16.67;;;4.30;99.90;;;;;;5014682;28;20022;-46
2023/01/29 05:36:38;;;;;;;29.73;16.20;;;4.30;99.90;;;;;;5014551;28;20026;-56
2023/01/29 05:39:04;;;;;;;32.67;18.58;;;4.30;99.90;;;;;;5014247;28;20473;-54
2023/01/29 05:41:29;;;;;;;30.63;18.08;;;4.30;99.90;;;;;;5016697;28;20045;-56
2023/01/29 05:43:55;;;;;;;27.25;17.20;;;4.30;99.90;;;;;;5016159;28;20108;-39
2023/01/29 05:46:21;;;;;;;28.88;16.48;;;4.30;99.90;;;;;;5014217;28;20080;-48
2023/01/29 05:48:46;;;;;;;32.10;16.73;;;4.20;99.90;;;;;;5021443;28;20026;-48
2023/01/29 05:51:12;;;;;;;28.40;16.33;;;4.30;99.90;;;;;;5015334;28;20025;-40
2023/01/29 05:53:37;;;;;;;30.48;16.83;;;4.30;99.90;;;;;;5021121;28;20037;-50
2023/01/29 05:56:04;;;;;;;32.78;16.40;;;4.20;99.90;;;;;;5013948;28;20477;-39
2023/01/29 05:58:30;;;;;;;34.35;17.70;;;4.20;99.90;;;;;;5013922;28;20034;-54
2023/01/29 06:00:56;;;;;;;29.23;16.73;;;4.20;99.90;;;;;;5013789;28;20045;-47
2023/01/29 06:03:22;;;;;;;32.15;16.88;;;4.20;99.90;;;;;;5013733;28;20022;-43
2023/01/29 06:05:47;;;;;;;32.58;17.20;;;4.20;99.90;;;;;;5013474;28;20504;-37
2023/01/29 06:08:13;;;;;;;30.38;17.08;;;4.20;99.90;;;;;;5013942;28;20022;-50
2023/01/29 06:10:39;;;;;;;32.10;18.23;;;4.30;99.90;;;;;;5013668;28;20038;-50
2023/01/29 06:13:05;;;;;;;32.97;18.13;;;4.30;99.90;;;;;;5013583;28;20022;-42
2023/01/29 06:15:31;;;;;;;30.73;16.73;;;4.30;99.90;;;;;;5013480;28;20026;-41
2023/01/29 06:17:57;;;;;;;30.73;17.67;;;4.30;99.90;;;;;;5000974;28;20040;-51
2023/01/29 06:20:23;;;;;;;29.50;17.50;;;4.30;99.90;;;;;;5013449;28;20101;-42
2023/01/29 06:22:48;;;;;;;31.40;17.35;;;4.30;99.90;;;;;;5013802;28;20036;-44
2023/01/29 06:25:14;;;;;;;32.08;18.05;;;4.30;99.90;;;;;;5013349;28;20130;-41
2023/01/29 06:27:39;;;;;;;38.80;18.88;;;4.20;99.90;;;;;;5013682;28;20061;-42
2023/01/29 06:30:06;;;;;;;33.35;18.45;;;4.20;99.90;;;;;;5013477;28;20029;-37
2023/01/29 06:32:32;;;;;;;32.88;18.13;;;4.20;99.90;;;;;;5013401;28;20072;-45
2023/01/29 06:34:57;;;;;;;29.60;16.90;;;4.20;99.90;;;;;;5013272;28;20038;-41
2023/01/29 06:37:23;;;;;;;34.28;17.23;;;4.20;99.90;;;;;;5012814;28;20041;-50
2023/01/29 06:39:49;;;;;;;35.10;17.35;;;4.20;99.90;;;;;;5013271;28;20026;-47
2023/01/29 06:42:14;;;;;;;33.97;16.98;;;4.20;99.90;;;;;;5013109;28;20029;-44
2023/01/29 06:44:40;;;;;;;33.42;17.63;;;4.20;99.90;;;;;;5012278;28;20033;-49
2023/01/29 06:47:05;;;;;;;29.63;16.48;;;4.10;99.90;;;;;;5013054;28;20026;-48
2023/01/29 06:49:31;;;;;;;33.35;17.05;;;4.20;99.90;;;;;;5013180;28;20026;-55
2023/01/29 06:51:57;;;;;;;32.78;16.35;;;4.20;99.90;;;;;;5013048;28;20396;-47
2023/01/29 06:54:22;;;;;;;30.83;17.30;;;4.20;99.90;;;;;;5012387;28;20049;-42
2023/01/29 06:56:48;;;;;;;31.65;17.65;;;4.30;99.90;;;;;;5012974;28;20041;-42
2023/01/29 06:59:14;;;;;;;35.70;18.48;;;4.30;99.90;;;;;;5012837;28;20038;-49
2023/01/29 07:01:41;;;;;;;31.10;17.23;;;4.40;99.90;;;;;;5012761;28;20073;-56
2023/01/29 07:04:06;;;;;;;29.92;16.65;;;4.40;99.90;;;;;;5012746;28;20101;-51
2023/01/29 07:06:32;;;;;;;30.10;16.33;;;4.40;99.90;;;;;;5012543;28;20056;-56
2023/01/29 07:08:58;;;;;;;28.90;16.10;;;4.50;99.90;;;;;;5012872;28;20121;-39
2023/01/29 07:11:24;;;;;;;31.20;16.10;;;4.50;99.90;;;;;;5012578;28;20441;-42
2023/01/29 07:13:49;;;;;;;30.15;15.40;;;4.50;99.90;;;;;;5012741;28;20384;-38
2023/01/29 07:16:15;;;;;;;29.85;16.92;;;4.60;99.90;;;;;;5012675;28;20021;-51
2023/01/29 07:18:41;;;;;;;29.75;15.93;;;4.50;99.90;;;;;;5012455;28;20497;-50
2023/01/29 07:21:06;;;;;;;30.10;16.85;;;4.50;99.90;;;;;;5012527;28;20022;-45
2023/01/29 07:23:33;;;;;;;34.30;16.73;;;4.50;99.90;;;;;;5012494;28;20065;-39
2023/01/29 07:26:03;;;;;;;31.05;16.73;;;4.50;99.90;;;;;;5012410;28;20058;-40
2023/01/29 07:28:29;;;;;;;30.73;16.33;;;4.50;99.90;;;;;;5012341;28;20026;-48
2023/01/29 07:30:58;;;;;;;29.85;16.23;;;4.40;99.90;;;;;;5012388;28;20076;-39
2023/01/29 07:33:24;;;;;;;31.63;16.38;;;4.40;99.90;;;;;;5011602;28;20026;-37
2023/01/29 07:35:51;;;;;;;26.23;15.75;;;4.40;99.90;;;;;;5011663;28;20140;-39
2023/01/29 07:38:16;;;;;;;29.75;16.17;;;4.40;99.90;;;;;;5010955;28;20029;-42
2023/01/29 07:40:42;;;;;;;34.15;16.42;;;4.40;99.90;;;;;;5011258;28;20076;-54
2023/01/29 07:43:09;;;;;;;37.10;17.23;;;4.40;99.90;;;;;;4994494;28;20022;-49
2023/01/29 07:45:37;;;;;;;31.77;16.33;;;4.50;99.90;;;;;;5011916;28;20026;-44
2023/01/29 07:48:05;;;;;;;32.03;15.90;;;4.50;99.90;;;;;;5012017;28;20029;-37
2023/01/29 07:50:32;;;;;;;31.50;16.58;;;4.50;99.90;;;;;;5012753;28;20107;-42
2023/01/29 07:52:58;;;;;;;29.88;15.50;;;4.50;99.90;;;;;;5011857;28;20034;-42
2023/01/29 07:55:24;;;;;;;32.50;15.65;;;4.60;99.90;;;;;;5011657;28;20069;-49
2023/01/29 07:57:56;;;;;;;29.73;15.27;;;4.60;99.90;;;;;;5013652;28;20041;-37
2023/01/29 08:00:22;;;;;;;28.95;14.82;;;4.60;99.90;;;;;;5005129;28;20108;-41
2023/01/29 08:02:47;;;;;;;28.83;14.82;;;4.70;99.90;;;;;;5011568;28;20068;-42
2023/01/29 08:05:13;;;;;;;30.33;15.50;;;4.70;99.90;;;;;;5011387;28;20033;-45
2023/01/29 08:07:39;;;;;;;27.50;15.25;;;4.70;99.90;;;;;;5011095;28;20045;-49
2023/01/29 08:10:05;;;;;;;25.92;13.88;;;4.70;99.90;;;;;;5011710;28;20022;-38
2023/01/29 08:12:30;;;;;;;28.65;15.88;;;4.80;99.90;;;;;;5011297;28;20045;-40
2023/01/29 08:14:56;;;;;;;27.65;15.60;;;4.80;99.90;;;;;;5011391;28;20018;-56
2023/01/29 08:17:22;;;;;;;31.55;16.75;;;4.90;99.90;;;;;;5011516;28;20041;-51
2023/01/29 08:19:47;;;;;;;30.50;16.13;;;4.90;99.90;;;;;;5011282;28;20030;-38
2023/01/29 08:22:15;;;;;;;33.92;16.77;;;5.00;99.90;;;;;;5011263;28;20080;-37
2023/01/29 08:24:41;;;;;;;29.50;15.48;;;5.00;99.90;;;;;;5011271;28;20178;-39
2023/01/29 08:27:07;;;;;;;26.40;14.43;;;5.00;99.90;;;;;;5011274;28;20503;-38
2023/01/29 08:29:32;;;;;;;29.65;14.98;;;5.00;99.90;;;;;;5011224;28;20033;-46
2023/01/29 08:31:58;;;;;;;27.88;14.30;;;5.00;99.90;;;;;;5011052;28;20107;-47
2023/01/29 08:34:23;;;;;;;26.63;14.50;;;5.00;99.90;;;;;;5011336;28;20022;-50
2023/01/29 08:36:49;;;;;;;23.90;12.95;;;5.00;99.90;;;;;;5010903;28;20345;-46
2023/01/29 08:39:15;;;;;;;24.63;12.60;;;5.00;99.90;;;;;;5011285;28;20033;-50
2023/01/29 08:41:40;;;;;;;25.23;12.85;;;5.10;99.90;;;;;;5011179;28;20048;-39
2023/01/29 08:44:06;;;;;;;26.77;13.25;;;5.10;99.90;;;;;;5010905;28;20436;-38
2023/01/29 08:46:32;;;;;;;25.05;13.15;;;5.20;99.90;;;;;;5010938;28;20033;-43
2023/01/29 08:48:58;;;;;;;27.90;13.18;;;5.30;99.90;;;;;;5010882;28;20029;-52
2023/01/29 08:51:24;;;;;;;21.05;11.88;;;5.40;99.90;;;;;;5010798;28;20465;-52
2023/01/29 08:53:50;;;;;;;27.13;12.95;;;5.50;99.90;;;;;;5020508;28;20026;-38
2023/01/29 08:56:15;;;;;;;20.52;11.32;;;5.60;99.90;;;;;;5024335;28;20502;-48
2023/01/29 08:58:41;;;;;;;21.48;11.43;;;5.70;99.90;;;;;;5024017;28;20029;-54
2023/01/29 09:01:09;;;;;;;22.10;12.18;;;5.90;99.90;;;;;;5022243;28;20049;-39
2023/01/29 09:03:35;;;;;;;22.58;10.98;;;6.10;99.90;;;;;;5017575;28;20029;-41
2023/01/29 09:06:01;;;;;;;19.05;10.07;;;6.20;99.90;;;;;;5013535;28;20549;-47
2023/01/29 09:08:27;;;;;;;22.48;10.73;;;6.40;99.90;;;;;;5014438;28;20029;-47
2023/01/29 09:10:52;;;;;;;17.50;9.52;;;6.60;99.90;;;;;;5014724;28;20030;-39
2023/01/29 09:13:18;;;;;;;18.30;9.57;;;6.80;99.90;;;;;;5020595;28;20090;-44
2023/01/29 09:15:44;;;;;;;18.20;9.07;;;6.90;99.90;;;;;;5022025;28;20025;-39
2023/01/29 09:18:09;;;;;;;21.02;10.10;;;7.00;99.90;;;;;;5014596;28;20030;-45
2023/01/29 09:20:37;;;;;;;18.27;8.80;;;6.90;99.90;;;;;;5021210;28;20026;-41
2023/01/29 09:23:07;;;;;;;19.13;9.68;;;6.90;99.90;;;;;;5014173;28;20112;-45
2023/01/29 09:25:33;;;;;;;20.30;9.05;;;6.90;99.90;;;;;;5014117;28;20081;-40
2023/01/29 09:27:59;;;;;;;15.48;8.38;;;6.90;99.90;;;;;;5014945;28;20061;-43
2023/01/29 09:30:24;;;;;;;17.63;8.50;;;6.90;99.90;;;;;;5013872;28;20524;-51
2023/01/29 09:32:50;;;;;;;14.88;8.32;;;6.80;99.90;;;;;;5013882;28;20125;-41
2023/01/29 09:35:16;;;;;;;14.07;8.07;;;6.80;99.90;;;;;;5014027;28;20509;-43
2023/01/29 09:37:41;;;;;;;14.70;7.90;;;6.80;99.90;;;;;;5013422;28;20120;-38
2023/01/29 09:40:17;;;;;;;16.50;8.13;;;6.70;99.90;;;;;;5012189;28;20033;-42
2023/01/29 09:42:52;;;;;;;17.05;8.43;;;6.70;99.90;;;;;;5016033;28;20018;-38
2023/01/29 09:45:26;;;;;;;15.02;8.93;;;6.70;99.90;;;;;;5015133;28;20022;-36
2023/01/29 09:47:54;;;;;;;14.68;7.57;;;6.70;99.90;;;;;;5025008;28;20475;-40
2023/01/29 09:50:39;;;;;;;15.13;7.75;;;6.70;99.90;;;;;;5025635;28;20060;-41
2023/01/29 09:53:20;;;;;;;12.75;6.95;;;6.80;99.90;;;;;;5022767;28;20033;-37
2023/01/29 09:55:53;;;;;;;12.15;6.95;;;6.80;99.90;;;;;;5013724;28;20362;-39
2023/01/29 09:58:26;;;;;;;14.88;6.88;;;6.80;99.90;;;;;;5014097;28;20316;-40
2023/01/29 10:01:19;;;;;;;11.23;6.65;;;6.70;99.90;;;;;;5015361;28;20042;-42
2023/01/29 10:04:18;;;;;;;12.02;6.90;;;6.70;99.90;;;;;;5029387;28;20022;-40
2023/01/29 10:07:24;;;;;;;11.18;6.38;;;6.70;99.90;;;;;;5027881;28;20124;-38
2023/01/29 10:10:03;;;;;;;12.13;6.18;;;6.70;99.90;;;;;;5023669;28;20022;-44
2023/01/29 10:12:57;;;;;;;12.23;6.38;;;6.70;99.90;;;;;;5027667;28;20042;-40
2023/01/29 10:15:49;;;;;;;12.15;6.22;;;6.70;99.90;;;;;;5027346;28;20071;-43
2023/01/29 10:18:34;;;;;;;12.98;7.03;;;6.70;99.90;;;;;;5012746;28;20101;-41
2023/01/29 10:21:14;;;;;;;13.43;7.43;;;6.60;99.90;;;;;;5013537;28;20030;-43
2023/01/29 10:23:48;;;;;;;14.02;7.35;;;6.60;99.90;;;;;;5001770;28;20030;-44
2023/01/29 10:26:14;;;;;;;13.80;7.50;;;6.60;99.90;;;;;;5013299;28;20030;-39
2023/01/29 10:28:46;;;;;;;13.52;6.82;;;6.60;99.90;;;;;;5013405;28;20030;-46
2023/01/29 10:31:26;;;;;;;12.52;6.63;;;6.60;99.90;;;;;;5013410;28;20088;-50
2023/01/29 10:33:56;;;;;;;11.07;6.30;;;6.60;99.90;;;;;;5013584;28;20101;-45
2023/01/29 10:36:31;;;;;;;12.88;7.35;;;6.60;99.90;;;;;;5013263;28;20030;-54
2023/01/29 10:38:56;;;;;;;14.38;7.53;;;6.70;99.90;;;;;;4995543;28;20087;-48
2023/01/29 10:41:57;;;;;;;13.43;6.70;;;6.70;99.90;;;;;;5013498;28;20022;-42
2023/01/29 10:44:48;;;;;;;12.05;6.70;;;6.80;99.90;;;;;;4990021;28;20104;-39
2023/01/29 10:47:33;;;;;;;15.13;6.90;;;6.80;99.90;;;;;;5013020;28;20026;-41
2023/01/29 10:50:16;;;;;;;14.73;7.90;;;7.00;99.90;;;;;;5012803;28;20029;-40
2023/01/29 10:52:48;;;;;;;13.75;7.00;;;7.10;99.90;;;;;;5012343;28;20029;-44
2023/01/29 10:55:22;;;;;;;12.82;7.03;;;7.20;99.90;;;;;;5013129;28;20032;-49
2023/01/29 10:58:30;;;;;;;12.70;6.57;;;7.30;99.90;;;;;;5012665;28;20037;-46
2023/01/29 11:00:56;;;;;;;12.45;6.70;;;7.40;99.90;;;;;;4966717;28;20050;-51
2023/01/29 11:03:23;;;;;;;13.07;6.32;;;7.40;99.90;;;;;;5012693;28;20026;-42
2023/01/29 11:05:55;;;;;;;13.82;6.45;;;7.40;99.90;;;;;;5012495;28;20054;-45
2023/01/29 11:08:27;;;;;;;11.40;6.18;;;7.40;99.90;;;;;;5012503;28;20487;-40
2023/01/29 11:11:14;;;;;;;12.95;6.25;;;7.40;99.90;;;;;;5012628;28;20524;-50
2023/01/29 11:13:49;;;;;;;12.75;6.63;;;7.50;99.90;;;;;;5012637;28;20484;-49
2023/01/29 11:16:15;;;;;;;11.23;5.90;;;7.60;99.90;;;;;;5012606;28;20052;-50
2023/01/29 11:18:54;;;;;;;10.63;5.70;;;7.60;99.90;;;;;;5013718;28;20389;-58
2023/01/29 11:21:21;;;;;;;8.68;5.25;;;7.70;99.90;;;;;;5014385;28;20061;-39
2023/01/29 11:23:47;;;;;;;10.15;5.18;;;7.60;99.90;;;;;;5023670;28;20026;-46
2023/01/29 11:26:19;;;;;;;9.75;4.97;;;7.60;99.90;;;;;;5026392;28;20029;-47
2023/01/29 11:28:50;;;;;;;9.95;4.28;;;7.50;99.90;;;;;;5024264;28;20072;-37
2023/01/29 11:31:34;;;;;;;10.95;4.30;;;7.40;99.90;;;;;;5016803;28;20033;-44
2023/01/29 11:34:12;;;;;;;11.13;4.80;;;7.30;99.90;;;;;;5021106;28;20377;-52
2023/01/29 11:36:38;;;;;;;10.85;5.05;;;7.20;99.90;;;;;;5022893;28;20018;-50
2023/01/29 11:39:09;;;;;;;10.77;5.25;;;7.30;99.90;;;;;;5021139;28;20029;-39
2023/01/29 11:41:59;;;;;;;9.68;5.15;;;7.30;99.90;;;;;;5020933;28;20014;-46
2023/01/29 11:44:29;;;;;;;10.82;5.18;;;7.40;99.90;;;;;;5009117;28;20028;-48
2023/01/29 11:46:58;;;;;;;9.82;4.70;;;7.40;99.90;;;;;;5002376;28;20034;-42
2023/01/29 11:49:33;;;;;;;7.97;4.00;;;7.30;99.90;;;;;;5017362;28;20022;-45
2023/01/29 11:52:03;;;;;;;7.78;3.90;;;7.40;99.90;;;;;;5026233;28;20489;-44
2023/01/29 11:54:34;;;;;;;9.13;4.10;;;7.30;99.90;;;;;;5009251;28;20515;-42
2023/01/29 11:57:01;;;;;;;8.18;4.07;;;7.50;99.90;;;;;;5028970;28;20318;-47
2023/01/29 11:59:32;;;;;;;10.25;4.50;;;7.60;99.90;;;;;;5023442;28;20038;-50
2023/01/29 12:02:17;;;;;;;9.13;4.47;;;7.60;99.90;;;;;;5011242;28;20046;-54
2023/01/29 12:04:43;;;;;;;9.15;4.15;;;7.70;99.90;;;;;;4995744;28;20026;-53
2023/01/29 12:07:15;;;;;;;9.38;4.60;;;7.70;99.90;;;;;;5010889;28;20034;-37
2023/01/29 12:09:47;;;;;;;11.35;5.00;;;7.80;99.90;;;;;;5011506;28;20037;-51
2023/01/29 12:12:40;;;;;;;12.20;4.97;;;7.90;99.90;;;;;;5011280;28;20381;-43
2023/01/29 12:15:20;;;;;;;8.85;4.15;;;8.00;99.90;;;;;;4993382;28;20274;-42
2023/01/29 12:18:12;;;;;;;8.70;4.50;;;8.00;99.90;;;;;;4993898;28;20046;-45
2023/01/29 12:20:53;;;;;;;8.40;4.47;;;8.20;99.90;;;;;;5011125;28;20149;-49
2023/01/29 12:23:33;;;;;;;7.47;4.28;;;8.20;99.90;;;;;;5010471;28;20026;-53
2023/01/29 12:26:07;;;;;;;8.77;4.50;;;8.30;99.90;;;;;;5010875;28;20045;-43
2023/01/29 12:29:10;;;;;;;8.95;4.30;;;8.30;99.90;;;;;;5019523;28;20028;-39
2023/01/29 12:31:39;;;;;;;8.13;4.07;;;8.20;99.90;;;;;;5017525;28;20075;-44
2023/01/29 12:34:19;;;;;;;10.40;4.15;;;8.20;99.90;;;;;;5023600;28;20037;-43
2023/01/29 12:36:54;;;;;;;7.80;4.40;;;8.20;99.90;;;;;;5004931;28;20034;-41
2023/01/29 12:39:20;;;;;;;8.05;4.07;;;8.30;99.90;;;;;;5006691;28;20456;-46
2023/01/29 12:42:14;;;;;;;7.53;4.15;;;8.40;99.90;;;;;;5010169;28;20034;-48
2023/01/29 12:44:47;;;;;;;5.72;3.50;;;8.30;99.90;;;;;;5022148;28;20100;-47
2023/01/29 12:47:36;;;;;;;8.60;4.00;;;8.30;99.90;;;;;;5011689;28;20025;-48
2023/01/29 12:50:14;;;;;;;7.87;4.30;;;8.30;99.90;;;;;;5010933;28;20080;-44
2023/01/29 12:52:48;;;;;;;8.40;4.20;;;8.30;99.90;;;;;;5010525;28;20034;-38
2023/01/29 12:55:22;;;;;;;8.43;3.88;;;8.30;99.90;;;;;;5011243;28;20057;-38
2023/01/29 12:58:17;;;;;;;9.98;4.05;;;8.20;99.90;;;;;;5010996;28;20508;-37
2023/01/29 13:00:47;;;;;;;6.90;3.90;;;8.20;99.90;;;;;;5005375;28;20121;-44
2023/01/29 13:03:16;;;;;;;7.35;3.42;;;8.10;99.90;;;;;;5010930;28;20044;-37
2023/01/29 13:05:59;;;;;;;7.83;3.93;;;8.20;99.90;;;;;;5010792;28;20018;-45
2023/01/29 13:08:39;;;;;;;5.78;3.25;;;8.20;99.90;;;;;;5002659;28;20033;-41
2023/01/29 13:11:26;;;;;;;6.85;3.33;;;8.20;99.90;;;;;;5006967;28;20033;-43
2023/01/29 13:14:12;;;;;;;6.70;3.10;;;8.20;99.90;;;;;;5010727;28;20100;-44
2023/01/29 13:16:44;;;;;;;7.90;2.75;;;8.20;99.90;;;;;;5013007;28;20025;-44
2023/01/29 13:19:41;;;;;;;4.93;2.58;;;8.20;99.90;;;;;;5011558;28;20223;-43
2023/01/29 13:22:25;;;;;;;5.40;2.45;;;8.10;99.90;;;;;;5004543;28;20550;-42
2023/01/29 13:24:51;;;;;;;8.65;3.47;;;8.10;99.90;;;;;;5004022;28;20029;-41
2023/01/29 13:27:28;;;;;;;58.58;30.52;;;8.10;99.90;;;;;;4999016;28;20029;-48
2023/01/29 13:29:55;;;;;;;16.65;8.30;;;8.10;99.90;;;;;;5009637;28;20058;-41
2023/01/29 13:32:29;;;;;;;9.88;6.75;;;8.10;99.90;;;;;;5008162;28;20085;-49
2023/01/29 13:34:58;;;;;;;11.02;6.63;;;8.10;99.90;;;;;;5007154;28;20030;-52